createdAt,value
2019-03-11T00:00:12.326Z,96652.53
2019-03-11T00:02:45.525Z,96645.89
2019-03-11T00:05:17.191Z,96639.87
2019-03-11T00:07:48.954Z,96632.96
2019-03-11T00:10:20.615Z,96634.52
2019-03-11T00:12:52.393Z,96622.02
2019-03-11T00:15:24.038Z,96628.14
2019-03-11T00:17:56.524Z,96615.27
2019-03-11T00:20:28.143Z,96616.25
2019-03-11T00:22:59.821Z,96611.21
2019-03-11T00:25:31.595Z,96612.00
2019-03-11T00:28:03.306Z,96603.69
2019-03-11T00:30:35.021Z,96607.38
2019-03-11T00:33:06.665Z,96601.45
2019-03-11T00:35:38.325Z,96600.38
2019-03-11T00:38:10.941Z,96590.62
2019-03-11T00:40:42.770Z,96584.13
2019-03-11T00:43:14.505Z,96595.48
2019-03-11T00:45:46.304Z,96591.80
2019-03-11T00:48:18.005Z,96590.77
2019-03-11T00:50:49.735Z,96590.77
2019-03-11T00:53:21.640Z,96593.36
2019-03-11T00:55:53.349Z,96577.73
2019-03-11T00:58:25.149Z,96582.41
2019-03-11T01:00:56.902Z,96581.36
2019-03-11T01:03:28.583Z,96582.93
2019-03-11T01:06:00.346Z,96583.28
2019-03-11T01:08:32.037Z,96581.36
2019-03-11T01:11:03.818Z,96575.14
2019-03-11T01:13:35.330Z,96572.70
2019-03-11T01:16:07.123Z,96579.25
2019-03-11T01:18:38.935Z,96571.30
2019-03-11T01:21:10.565Z,96565.80
2019-03-11T01:23:42.388Z,96570.73
2019-03-11T01:26:14.097Z,96573.80
2019-03-11T01:28:45.933Z,96570.16
2019-03-11T01:31:17.597Z,96571.92
2019-03-11T01:33:49.375Z,96568.03
2019-03-11T01:36:21.033Z,96570.63
2019-03-11T01:38:52.645Z,96567.41
2019-03-11T01:41:24.313Z,96569.74
2019-03-11T01:43:56.072Z,96559.21
2019-03-11T01:46:27.775Z,96557.77
2019-03-11T01:48:59.414Z,96553.05
2019-03-11T01:51:31.112Z,96552.16
2019-03-11T01:54:02.643Z,96545.09
2019-03-11T01:56:34.409Z,96553.66
2019-03-11T01:59:07.221Z,96549.02
2019-03-11T02:01:39.044Z,96546.52
2019-03-11T02:04:10.752Z,96551.23
2019-03-11T02:06:42.456Z,96556.63
2019-03-11T02:09:15.126Z,96556.99
2019-03-11T02:11:46.808Z,96555.02
2019-03-11T02:14:18.617Z,96563.95
2019-03-11T02:16:50.469Z,96570.80
2019-03-11T02:19:22.128Z,96580.33
2019-03-11T02:21:53.825Z,96578.30
2019-03-11T02:24:25.558Z,96571.97
2019-03-11T02:26:57.269Z,96581.30
2019-03-11T02:29:28.941Z,96579.37
2019-03-11T02:32:00.626Z,96582.59
2019-03-11T02:34:32.410Z,96590.75
2019-03-11T02:37:04.218Z,96598.12
2019-03-11T02:39:35.881Z,96587.68
2019-03-11T02:42:07.720Z,96595.56
2019-03-11T02:44:39.347Z,96598.94
2019-03-11T02:47:11.055Z,96592.88
2019-03-11T02:49:44.163Z,96601.50
2019-03-11T02:52:16.195Z,96605.50
2019-03-11T02:54:47.947Z,96604.24
2019-03-11T02:57:19.830Z,96616.59
2019-03-11T02:59:51.580Z,96605.53
2019-03-11T03:02:50.789Z,96609.59
2019-03-11T03:05:27.410Z,96610.33
2019-03-11T03:08:01.926Z,96613.48
2019-03-11T03:10:33.519Z,96624.62
2019-03-11T03:13:05.144Z,96625.19
2019-03-11T03:15:36.793Z,96637.38
2019-03-11T03:18:08.454Z,96646.66
2019-03-11T03:20:40.684Z,96641.72
2019-03-11T03:23:12.352Z,96641.77
2019-03-11T03:25:43.962Z,96650.23
2019-03-11T03:28:15.795Z,96650.23
2019-03-11T03:30:47.415Z,96657.03
2019-03-11T03:33:19.123Z,96651.46
2019-03-11T03:35:50.914Z,96654.73
2019-03-11T03:38:30.368Z,96654.91
2019-03-11T03:40:55.910Z,96644.83
2019-03-11T03:43:27.521Z,96645.92
2019-03-11T03:45:59.189Z,96645.80
2019-03-11T03:48:31.155Z,96645.50
2019-03-11T03:51:02.934Z,96642.84
2019-03-11T03:53:34.844Z,96644.76
2019-03-11T03:56:06.648Z,96644.02
2019-03-11T03:58:38.276Z,96648.32
2019-03-11T04:01:10.471Z,96659.78
2019-03-11T04:03:42.078Z,96654.23
2019-03-11T04:06:14.698Z,96643.75
2019-03-11T04:08:47.994Z,96652.00
2019-03-11T04:11:20.845Z,96664.97
2019-03-11T04:13:52.651Z,96666.92
2019-03-11T04:16:24.300Z,96669.06
2019-03-11T04:18:57.692Z,96669.31
2019-03-11T04:21:29.396Z,96670.00
2019-03-11T04:24:01.094Z,96674.86
2019-03-11T04:26:33.421Z,96676.16
2019-03-11T04:29:05.138Z,96672.78
2019-03-11T04:31:36.905Z,96676.13
2019-03-11T04:34:08.505Z,96676.45
2019-03-11T04:36:40.213Z,96676.73
2019-03-11T04:39:11.864Z,96676.53
2019-03-11T04:41:43.566Z,96673.25
2019-03-11T04:44:15.321Z,96675.63
2019-03-11T04:46:48.183Z,96677.35
2019-03-11T04:49:19.802Z,96678.06
2019-03-11T04:51:51.383Z,96682.92
2019-03-11T04:54:22.963Z,96681.97
2019-03-11T04:56:54.678Z,96693.41
2019-03-11T04:59:26.447Z,96698.75
2019-03-11T05:01:58.060Z,96700.19
2019-03-11T05:04:29.672Z,96701.34
2019-03-11T05:07:01.295Z,96697.73
2019-03-11T05:09:33.102Z,96707.13
2019-03-11T05:12:05.004Z,96710.77
2019-03-11T05:14:36.774Z,96711.13
2019-03-11T05:17:08.561Z,96720.53
2019-03-11T05:19:40.578Z,96716.99
2019-03-11T05:22:12.281Z,96715.95
2019-03-11T05:24:43.912Z,96719.16
2019-03-11T05:27:15.624Z,96715.27
2019-03-11T05:29:47.284Z,96713.55
2019-03-11T05:32:18.985Z,96722.80
2019-03-11T05:34:51.092Z,96720.59
2019-03-11T05:37:22.697Z,96722.64
2019-03-11T05:39:54.237Z,96721.50
2019-03-11T05:42:25.813Z,96730.15
2019-03-11T05:44:57.672Z,96730.48
2019-03-11T05:47:29.566Z,96729.47
2019-03-11T05:50:01.332Z,96724.42
2019-03-11T05:52:33.257Z,96735.20
2019-03-11T05:55:05.027Z,96741.95
2019-03-11T05:57:36.667Z,96741.28
2019-03-11T06:00:11.261Z,96757.76
2019-03-11T06:02:42.934Z,96757.72
2019-03-11T06:05:14.919Z,96767.22
2019-03-11T06:07:46.623Z,96769.31
2019-03-11T06:10:19.186Z,96767.14
2019-03-11T06:12:51.101Z,96767.69
2019-03-11T06:15:27.479Z,96774.17
2019-03-11T06:17:59.051Z,96776.22
2019-03-11T06:20:44.969Z,96773.88
2019-03-11T06:23:16.553Z,96775.86
2019-03-11T06:25:48.624Z,96778.27
2019-03-11T06:28:20.321Z,96782.79
2019-03-11T06:30:52.679Z,96785.84
2019-03-11T06:33:24.347Z,96798.09
2019-03-11T06:35:56.266Z,96796.34
2019-03-11T06:38:28.375Z,96798.69
2019-03-11T06:41:00.423Z,96809.84
2019-03-11T06:43:32.749Z,96817.40
2019-03-11T06:46:04.685Z,96823.80
2019-03-11T06:48:36.383Z,96831.53
2019-03-11T06:51:08.055Z,96820.25
2019-03-11T06:53:39.801Z,96823.44
2019-03-11T06:56:11.571Z,96827.58
2019-03-11T06:58:43.124Z,96826.70
2019-03-11T07:01:14.987Z,96816.01
2019-03-11T07:03:47.828Z,96821.34
2019-03-11T07:06:19.664Z,96824.96
2019-03-11T07:08:51.210Z,96823.55
2019-03-11T07:11:22.983Z,96824.81
2019-03-11T07:13:54.810Z,96827.20
2019-03-11T07:16:26.515Z,96825.27
2019-03-11T07:18:59.402Z,96824.36
2019-03-11T07:21:31.086Z,96830.55
2019-03-11T07:24:02.581Z,96832.52
2019-03-11T07:26:34.258Z,96837.48
2019-03-11T07:29:05.931Z,96834.84
2019-03-11T07:31:37.774Z,96826.70
2019-03-11T07:34:09.467Z,96826.11
2019-03-11T07:36:41.191Z,96826.98
2019-03-11T07:39:12.751Z,96815.25
2019-03-11T07:41:44.391Z,96818.23
2019-03-11T07:44:15.991Z,96815.33
2019-03-11T07:46:47.721Z,96812.06
2019-03-11T07:49:19.523Z,96813.72
2019-03-11T07:51:51.203Z,96813.27
2019-03-11T07:54:35.302Z,96812.77
2019-03-11T07:56:57.752Z,96811.78
2019-03-11T07:59:33.553Z,96801.31
2019-03-11T08:02:05.115Z,96797.05
2019-03-11T08:04:36.852Z,96794.10
2019-03-11T08:07:08.628Z,96788.53
2019-03-11T08:09:40.302Z,96796.02
2019-03-11T08:12:11.891Z,96805.18
2019-03-11T08:14:43.658Z,96802.06
2019-03-11T08:17:15.458Z,96801.56
2019-03-11T08:19:47.085Z,96805.61
2019-03-11T08:22:18.634Z,96796.57
2019-03-11T08:24:50.143Z,96793.90
2019-03-11T08:27:21.789Z,96793.03
2019-03-11T08:29:53.386Z,96791.09
2019-03-11T08:32:25.013Z,96798.94
2019-03-11T08:34:56.671Z,96797.16
2019-03-11T08:37:28.204Z,96792.80
2019-03-11T08:39:59.821Z,96806.20
2019-03-11T08:42:31.516Z,96803.28
2019-03-11T08:45:03.209Z,96806.55
2019-03-11T08:47:34.937Z,96800.69
2019-03-11T08:50:08.071Z,96800.69
2019-03-11T08:52:39.525Z,96802.98
2019-03-11T08:55:11.955Z,96794.15
2019-03-11T08:57:43.668Z,96786.73
2019-03-11T09:00:15.666Z,96790.70
2019-03-11T09:02:47.401Z,96786.84
2019-03-11T09:05:19.636Z,96783.90
2019-03-11T09:07:51.396Z,96787.05
2019-03-11T09:10:23.189Z,96788.30
2019-03-11T09:12:54.816Z,96786.13
2019-03-11T09:15:26.841Z,96784.32
2019-03-11T09:17:58.421Z,96788.12
2019-03-11T09:20:32.797Z,96792.78
2019-03-11T09:23:04.516Z,96795.00
2019-03-11T09:25:37.444Z,96797.88
2019-03-11T09:28:09.111Z,96796.17
2019-03-11T09:30:40.845Z,96796.86
2019-03-11T09:33:13.083Z,96793.09
2019-03-11T09:35:44.608Z,96802.05
2019-03-11T09:38:16.416Z,96800.41
2019-03-11T09:40:48.086Z,96790.64
2019-03-11T09:43:19.874Z,96797.71
2019-03-11T09:45:51.503Z,96798.74
2019-03-11T09:48:23.332Z,96795.49
2019-03-11T09:50:55.131Z,96786.92
2019-03-11T09:53:26.858Z,96792.77
2019-03-11T09:55:58.604Z,96798.60
2019-03-11T09:58:31.444Z,96796.80
2019-03-11T10:01:03.086Z,96800.90
2019-03-11T10:03:34.750Z,96795.91
2019-03-11T10:06:07.869Z,96785.73
2019-03-11T10:08:39.512Z,96784.61
2019-03-11T10:11:11.169Z,96783.66
2019-03-11T10:13:42.825Z,96789.06
2019-03-11T10:16:14.381Z,96779.79
2019-03-11T10:18:46.450Z,96772.88
2019-03-11T10:21:18.175Z,96773.66
2019-03-11T10:23:49.918Z,96778.45
2019-03-11T10:26:21.656Z,96764.16
2019-03-11T10:28:53.336Z,96766.20
2019-03-11T10:31:24.985Z,96768.87
2019-03-11T10:33:56.739Z,96765.41
2019-03-11T10:36:29.629Z,96758.83
2019-03-11T10:39:01.507Z,96765.80
2019-03-11T10:41:34.806Z,96764.48
2019-03-11T10:44:06.657Z,96770.91
2019-03-11T10:46:39.482Z,96762.02
2019-03-11T10:49:13.641Z,96747.84
2019-03-11T10:51:45.453Z,96755.77
2019-03-11T10:54:17.181Z,96741.94
2019-03-11T10:56:48.898Z,96737.92
2019-03-11T10:59:20.648Z,96748.40
2019-03-11T11:01:52.274Z,96748.06
2019-03-11T11:04:24.024Z,96746.99
2019-03-11T11:06:55.701Z,96747.80
2019-03-11T11:09:27.273Z,96735.91
2019-03-11T11:11:59.073Z,96735.15
2019-03-11T11:14:30.729Z,96728.14
2019-03-11T11:17:02.515Z,96736.41
2019-03-11T11:19:35.293Z,96742.42
2019-03-11T11:22:07.239Z,96745.34
2019-03-11T11:24:38.935Z,96744.80
2019-03-11T11:27:11.989Z,96740.45
2019-03-11T11:29:43.689Z,96743.67
2019-03-11T11:32:15.306Z,96741.05
2019-03-11T11:34:47.103Z,96744.49
2019-03-11T11:37:18.979Z,96738.61
2019-03-11T11:39:51.151Z,96737.42
2019-03-11T11:42:22.882Z,96733.15
2019-03-11T11:44:54.622Z,96731.09
2019-03-11T11:47:26.311Z,96730.84
2019-03-11T11:49:58.194Z,96736.06
2019-03-11T11:52:30.050Z,96730.77
2019-03-11T11:55:02.039Z,96728.94
2019-03-11T11:57:33.988Z,96722.72
2019-03-11T12:00:07.175Z,96723.21
2019-03-11T12:02:39.042Z,96730.98
2019-03-11T12:05:12.300Z,96726.00
2019-03-11T12:07:44.180Z,96732.14
2019-03-11T12:10:17.253Z,96723.63
2019-03-11T12:12:49.191Z,96713.53
2019-03-11T12:15:21.205Z,96714.55
2019-03-11T12:17:52.873Z,96710.86
2019-03-11T12:20:25.050Z,96714.77
2019-03-11T12:22:56.881Z,96711.57
2019-03-11T12:25:28.789Z,96714.88
2019-03-11T12:28:03.159Z,96711.40
2019-03-11T12:30:35.068Z,96714.27
2019-03-11T12:33:06.865Z,96713.84
2019-03-11T12:35:38.651Z,96710.42
2019-03-11T12:38:10.474Z,96706.78
2019-03-11T12:40:42.205Z,96712.17
2019-03-11T12:43:13.869Z,96707.06
2019-03-11T12:45:45.695Z,96707.78
2019-03-11T12:48:17.384Z,96721.23
2019-03-11T12:50:49.125Z,96718.25
2019-03-11T12:53:20.910Z,96718.41
2019-03-11T12:55:52.700Z,96729.56
2019-03-11T12:58:24.584Z,96724.32
2019-03-11T13:00:56.401Z,96724.09
2019-03-11T13:03:28.328Z,96726.99
2019-03-11T13:06:00.177Z,96723.42
2019-03-11T13:08:31.981Z,96723.15
2019-03-11T13:11:05.212Z,96720.19
2019-03-11T13:13:37.087Z,96716.23
2019-03-11T13:16:08.818Z,96705.45
2019-03-11T13:18:42.691Z,96712.95
2019-03-11T13:21:17.794Z,96709.35
2019-03-11T13:23:49.634Z,96718.52
2019-03-11T13:26:21.343Z,96703.11
2019-03-11T13:28:53.018Z,96702.07
2019-03-11T13:31:24.801Z,96702.10
2019-03-11T13:33:56.656Z,96708.34
2019-03-11T13:36:28.429Z,96697.53
2019-03-11T13:39:01.322Z,96697.93
2019-03-11T13:41:34.596Z,96706.67
2019-03-11T13:44:06.447Z,96703.95
2019-03-11T13:46:38.117Z,96694.04
2019-03-11T13:49:09.893Z,96696.84
2019-03-11T13:51:42.614Z,96703.38
2019-03-11T13:54:15.635Z,96701.63
2019-03-11T13:56:47.264Z,96699.97
2019-03-11T13:59:19.561Z,96693.53
2019-03-11T14:01:51.221Z,96698.78
2019-03-11T14:04:23.072Z,96700.78
2019-03-11T14:06:54.866Z,96697.14
2019-03-11T14:09:26.603Z,96697.30
2019-03-11T14:11:59.625Z,96694.70
2019-03-11T14:14:31.453Z,96690.47
2019-03-11T14:17:03.192Z,96686.59
2019-03-11T14:19:35.001Z,96683.81
2019-03-11T14:22:06.728Z,96687.44
2019-03-11T14:24:38.427Z,96682.89
2019-03-11T14:27:10.216Z,96674.77
2019-03-11T14:29:41.924Z,96675.09
2019-03-11T14:32:14.562Z,96675.14
2019-03-11T14:34:46.500Z,96673.84
2019-03-11T14:37:18.129Z,96680.38
2019-03-11T14:39:49.839Z,96675.16
2019-03-11T14:42:21.508Z,96668.47
2019-03-11T14:44:53.327Z,96673.86
2019-03-11T14:47:26.526Z,96669.29
2019-03-11T14:49:58.379Z,96672.25
2019-03-11T14:52:29.977Z,96671.91
2019-03-11T14:55:01.746Z,96663.27
2019-03-11T14:57:34.873Z,96666.56
2019-03-11T15:00:07.834Z,96659.20
2019-03-11T15:02:39.557Z,96659.22
2019-03-11T15:05:12.463Z,96660.38
2019-03-11T15:07:44.176Z,96654.63
2019-03-11T15:10:16.279Z,96651.38
2019-03-11T15:12:48.505Z,96660.88
2019-03-11T15:15:20.791Z,96656.78
2019-03-11T15:17:52.519Z,96654.98
2019-03-11T15:20:24.230Z,96653.36
2019-03-11T15:23:05.992Z,96647.50
2019-03-11T15:25:29.145Z,96650.77
2019-03-11T15:28:00.923Z,96659.88
2019-03-11T15:30:32.594Z,96660.05
2019-03-11T15:33:04.236Z,96657.92
2019-03-11T15:35:36.002Z,96660.53
2019-03-11T15:38:07.573Z,96653.02
2019-03-11T15:40:39.318Z,96649.92
2019-03-11T15:43:10.977Z,96647.63
2019-03-11T15:45:42.676Z,96653.02
2019-03-11T15:48:14.696Z,96649.44
2019-03-11T15:50:46.554Z,96648.63
2019-03-11T15:53:18.572Z,96645.36
2019-03-11T15:55:50.422Z,96652.67
2019-03-11T15:58:22.269Z,96652.66
2019-03-11T16:00:54.227Z,96648.58
2019-03-11T16:03:35.925Z,96655.10
2019-03-11T16:05:59.650Z,96655.92
2019-03-11T16:08:31.333Z,96654.58
2019-03-11T16:11:02.996Z,96651.61
2019-03-11T16:13:34.707Z,96659.12
2019-03-11T16:16:06.246Z,96659.41
2019-03-11T16:18:37.968Z,96664.28
2019-03-11T16:21:09.911Z,96658.50
2019-03-11T16:23:41.532Z,96659.66
2019-03-11T16:26:13.242Z,96663.42
2019-03-11T16:28:48.277Z,96660.98
2019-03-11T16:31:19.529Z,96662.91
2019-03-11T16:33:51.258Z,96668.79
2019-03-11T16:36:24.204Z,96666.17
2019-03-11T16:38:55.833Z,96661.91
2019-03-11T16:41:27.496Z,96663.16
2019-03-11T16:43:59.256Z,96662.34
2019-03-11T16:46:30.986Z,96664.78
2019-03-11T16:49:02.580Z,96663.84
2019-03-11T16:51:34.476Z,96665.13
2019-03-11T16:54:05.998Z,96662.37
2019-03-11T16:56:38.011Z,96666.47
2019-03-11T16:59:09.946Z,96669.06
2019-03-11T17:01:42.964Z,96670.20
2019-03-11T17:04:14.891Z,96675.58
2019-03-11T17:06:46.672Z,96670.63
2019-03-11T17:09:18.376Z,96668.74
2019-03-11T17:11:50.127Z,96664.89
2019-03-11T17:14:21.891Z,96659.73
2019-03-11T17:16:53.506Z,96656.36
2019-03-11T17:19:25.207Z,96657.75
2019-03-11T17:21:56.797Z,96647.73
2019-03-11T17:24:28.512Z,96642.74
2019-03-11T17:27:00.331Z,96640.52
2019-03-11T17:29:32.004Z,96637.61
2019-03-11T17:32:03.881Z,96626.91
2019-03-11T17:34:35.800Z,96627.48
2019-03-11T17:37:07.410Z,96633.57
2019-03-11T17:39:39.123Z,96626.48
2019-03-11T17:42:10.946Z,96641.75
2019-03-11T17:44:42.599Z,96644.15
2019-03-11T17:47:14.353Z,96641.28
2019-03-11T17:49:46.143Z,96643.69
2019-03-11T17:52:17.844Z,96650.49
2019-03-11T17:54:50.865Z,96649.67
2019-03-11T17:57:22.775Z,96646.39
2019-03-11T17:59:54.596Z,96643.88
2019-03-11T18:02:26.557Z,96639.70
2019-03-11T18:04:59.516Z,96637.85
2019-03-11T18:07:31.244Z,96645.09
2019-03-11T18:10:02.992Z,96640.77
2019-03-11T18:12:35.613Z,96641.72
2019-03-11T18:15:07.582Z,96638.84
2019-03-11T18:17:39.350Z,96642.34
2019-03-11T18:20:12.247Z,96637.80
2019-03-11T18:22:44.071Z,96646.50
2019-03-11T18:25:16.822Z,96640.95
2019-03-11T18:27:48.609Z,96646.47
2019-03-11T18:30:21.071Z,96642.67
2019-03-11T18:32:52.718Z,96643.38
2019-03-11T18:35:24.273Z,96648.02
2019-03-11T18:38:03.925Z,96645.60
2019-03-11T18:40:30.543Z,96646.80
2019-03-11T18:43:02.332Z,96643.54
2019-03-11T18:45:33.989Z,96640.05
2019-03-11T18:48:05.774Z,96636.59
2019-03-11T18:50:37.709Z,96638.17
2019-03-11T18:53:09.337Z,96636.72
2019-03-11T18:55:41.092Z,96636.91
2019-03-11T18:58:12.978Z,96632.40
2019-03-11T19:00:44.780Z,96636.62
2019-03-11T19:03:16.598Z,96632.75
2019-03-11T19:05:48.194Z,96633.61
2019-03-11T19:08:19.912Z,96636.08
2019-03-11T19:10:51.524Z,96641.25
2019-03-11T19:13:23.286Z,96645.66
2019-03-11T19:15:55.993Z,96649.41
2019-03-11T19:18:27.874Z,96648.74
2019-03-11T19:21:01.586Z,96649.06
2019-03-11T19:23:33.375Z,96650.68
2019-03-11T19:26:05.276Z,96654.42
2019-03-11T19:28:37.104Z,96657.84
2019-03-11T19:31:08.933Z,96655.56
2019-03-11T19:33:40.984Z,96656.23
2019-03-11T19:36:12.720Z,96653.63
2019-03-11T19:38:44.536Z,96651.03
2019-03-11T19:41:16.212Z,96653.31
2019-03-11T19:43:48.007Z,96648.71
2019-03-11T19:46:19.891Z,96644.84
2019-03-11T19:48:51.680Z,96646.45
2019-03-11T19:51:25.927Z,96642.23
2019-03-11T19:53:57.810Z,96643.70
2019-03-11T19:56:29.682Z,96648.05
2019-03-11T19:59:01.496Z,96646.36
2019-03-11T20:01:33.445Z,96642.42
2019-03-11T20:04:05.755Z,96648.10
2019-03-11T20:06:37.663Z,96644.67
2019-03-11T20:09:13.433Z,96637.70
2019-03-11T20:11:45.966Z,96635.25
2019-03-11T20:14:17.623Z,96626.59
2019-03-11T20:16:51.048Z,96628.08
2019-03-11T20:19:22.724Z,96625.26
2019-03-11T20:21:54.468Z,96621.32
2019-03-11T20:24:26.119Z,96619.36
2019-03-11T20:26:59.309Z,96611.36
2019-03-11T20:29:33.792Z,96617.27
2019-03-11T20:32:04.561Z,96618.72
2019-03-11T20:34:36.382Z,96621.36
2019-03-11T20:37:07.925Z,96616.95
2019-03-11T20:39:39.691Z,96609.87
2019-03-11T20:42:12.581Z,96608.41
2019-03-11T20:44:44.328Z,96613.10
2019-03-11T20:47:15.928Z,96603.17
2019-03-11T20:49:48.017Z,96601.17
2019-03-11T20:52:20.053Z,96597.94
2019-03-11T20:54:52.140Z,96603.45
2019-03-11T20:57:24.056Z,96593.72
2019-03-11T20:59:55.983Z,96595.30
2019-03-11T21:02:28.568Z,96599.88
2019-03-11T21:05:04.576Z,96594.67
2019-03-11T21:07:36.553Z,96592.89
2019-03-11T21:10:10.164Z,96585.53
2019-03-11T21:12:42.235Z,96584.39
2019-03-11T21:15:15.539Z,96581.63
2019-03-11T21:17:47.294Z,96576.95
2019-03-11T21:20:19.057Z,96579.55
2019-03-11T21:22:50.862Z,96568.00
2019-03-11T21:25:22.592Z,96559.36
2019-03-11T21:27:54.894Z,96558.63
2019-03-11T21:30:26.559Z,96553.89
2019-03-11T21:32:58.247Z,96557.30
2019-03-11T21:35:29.887Z,96555.66
2019-03-11T21:38:01.510Z,96564.54
2019-03-11T21:40:33.358Z,96562.84
2019-03-11T21:43:05.121Z,96563.30
2019-03-11T21:45:36.765Z,96569.52
2019-03-11T21:48:08.656Z,96569.34
2019-03-11T21:50:40.267Z,96578.37
2019-03-11T21:53:11.938Z,96565.25
2019-03-11T21:55:43.864Z,96562.92
2019-03-11T21:58:15.645Z,96557.72
2019-03-11T22:00:47.239Z,96560.11
2019-03-11T22:03:18.906Z,96543.79
2019-03-11T22:05:51.592Z,96541.75
2019-03-11T22:08:23.299Z,96533.23
2019-03-11T22:10:54.888Z,96530.33
2019-03-11T22:13:26.574Z,96521.29
2019-03-11T22:15:58.988Z,96512.95
2019-03-11T22:18:30.710Z,96514.61
2019-03-11T22:21:02.489Z,96507.69
2019-03-11T22:23:34.120Z,96501.38
2019-03-11T22:26:05.711Z,96500.75
2019-03-11T22:28:37.280Z,96493.09
2019-03-11T22:31:08.894Z,96493.58
2019-03-11T22:33:40.483Z,96504.04
2019-03-11T22:36:12.037Z,96510.16
2019-03-11T22:38:43.669Z,96518.00
2019-03-11T22:41:15.385Z,96523.50
2019-03-11T22:43:47.062Z,96526.91
2019-03-11T22:46:20.308Z,96532.53
2019-03-11T22:48:52.143Z,96532.19
2019-03-11T22:51:23.728Z,96539.80
2019-03-11T22:53:55.321Z,96538.16
2019-03-11T22:56:26.912Z,96534.91
2019-03-11T22:58:58.685Z,96537.47
2019-03-11T23:01:30.622Z,96542.25
2019-03-11T23:04:02.423Z,96540.52
2019-03-11T23:06:34.163Z,96537.34
2019-03-11T23:09:06.749Z,96542.39
2019-03-11T23:11:39.846Z,96538.39
2019-03-11T23:14:11.712Z,96538.63
2019-03-11T23:16:43.438Z,96538.63
2019-03-11T23:19:15.061Z,96540.52
2019-03-11T23:21:46.760Z,96541.08
2019-03-11T23:24:18.383Z,96521.86
2019-03-11T23:26:50.140Z,96522.53
2019-03-11T23:29:21.812Z,96529.43
2019-03-11T23:31:53.630Z,96533.59
2019-03-11T23:34:26.419Z,96536.00
2019-03-11T23:36:58.213Z,96534.34
2019-03-11T23:39:29.933Z,96542.98
2019-03-11T23:42:03.125Z,96544.00
2019-03-11T23:44:34.803Z,96539.95
2019-03-11T23:47:06.447Z,96542.64
2019-03-11T23:49:38.637Z,96542.58
2019-03-11T23:52:10.346Z,96544.45
2019-03-11T23:54:42.199Z,96548.25
2019-03-11T23:57:13.827Z,96536.53
2019-03-11T23:59:45.444Z,96534.48
